Time;durP1;ratioP1;P1;durP2;ratioP2;P2;SDS_P1;SDS_P2;PMS_P1;PMS_P2;Temp;Humidity;BMP_temperature;BMP_pressure;BME280_temperature;BME280_humidity;BME280_pressure;Samples;Min_cycle;Max_cycle;Signal;HPM_P1;HPM_P2
2021/03/23 00:00:42;;;;;;;34.38;13.93;;;;;;;2.46;66.60;96163.94;5027670;28;20052;-72
2021/03/23 00:03:12;;;;;;;31.88;15.77;;;;;;;2.50;66.50;96167.22;5027496;28;20551;-71
2021/03/23 00:05:38;;;;;;;34.63;20.08;;;;;;;2.43;66.08;96164.09;5027460;28;20021;-71
2021/03/23 00:08:07;;;;;;;29.23;16.15;;;;;;;2.38;66.12;96166.09;5021671;28;20152;-71
2021/03/23 00:10:34;;;;;;;26.00;12.70;;;;;;;2.31;66.99;96167.31;5027505;28;20022;-71
2021/03/23 00:12:59;;;;;;;29.02;13.98;;;;;;;2.31;66.79;96164.72;5026496;28;20715;-71
2021/03/23 00:15:25;;;;;;;28.02;12.07;;;;;;;2.29;67.21;96176.03;5026859;28;20153;-71
2021/03/23 00:17:51;;;;;;;28.25;13.13;;;;;;;2.34;66.48;96174.97;5025738;28;20057;-71
2021/03/23 00:20:21;;;;;;;30.65;13.07;;;;;;;2.45;66.25;96182.22;5025127;28;20032;-71
2021/03/23 00:22:47;;;;;;;28.35;13.20;;;;;;;2.52;66.48;96181.81;5026018;28;20029;-71
2021/03/23 00:25:13;;;;;;;24.52;12.38;;;;;;;2.57;66.11;96186.75;5025064;28;20040;-71
2021/03/23 00:27:39;;;;;;;23.30;12.07;;;;;;;2.67;65.79;96187.13;5013265;28;20081;-71
2021/03/23 00:30:08;;;;;;;28.88;12.40;;;;;;;2.74;65.59;96187.66;5001644;28;20568;-71
2021/03/23 00:32:34;;;;;;;26.60;13.35;;;;;;;2.81;65.46;96189.84;5008983;28;20034;-71
2021/03/23 00:34:59;;;;;;;32.15;12.13;;;;;;;2.80;65.30;96189.91;5017791;28;20033;-71
2021/03/23 00:37:25;;;;;;;27.02;11.88;;;;;;;2.84;65.31;96194.03;5017597;28;20064;-72
2021/03/23 00:39:51;;;;;;;27.30;11.32;;;;;;;2.81;65.55;96196.78;4995756;28;20445;-72
2021/03/23 00:42:17;;;;;;;24.95;12.48;;;;;;;2.89;64.85;96196.38;5017393;28;20040;-72
2021/03/23 00:44:43;;;;;;;33.55;14.02;;;;;;;2.89;65.25;96191.19;5011521;28;20498;-72
2021/03/23 00:47:09;;;;;;;25.77;13.45;;;;;;;2.94;64.91;96197.81;5013378;28;20545;-72
2021/03/23 00:49:34;;;;;;;33.08;13.23;;;;;;;2.92;65.21;96194.47;5013655;28;20069;-72
2021/03/23 00:52:00;;;;;;;22.23;11.13;;;;;;;2.95;64.71;96189.09;5013111;28;20080;-72
2021/03/23 00:54:25;;;;;;;35.58;14.02;;;;;;;2.94;64.42;96200.44;5012508;28;20022;-71
2021/03/23 00:56:51;;;;;;;28.02;13.10;;;;;;;2.84;64.68;96200.06;5012166;28;20033;-71
2021/03/23 00:59:17;;;;;;;25.13;12.75;;;;;;;2.88;66.02;96199.91;5012823;28;20022;-72
2021/03/23 01:01:42;;;;;;;26.02;13.93;;;;;;;2.89;65.62;96202.44;5012307;28;20036;-72
2021/03/23 01:04:08;;;;;;;24.23;13.20;;;;;;;2.96;64.89;96208.13;5008967;28;20030;-72
2021/03/23 01:06:33;;;;;;;25.10;12.85;;;;;;;2.98;63.19;96211.47;5008591;28;20390;-72
2021/03/23 01:08:59;;;;;;;25.67;13.18;;;;;;;2.94;64.44;96197.81;5012418;28;20083;-72
2021/03/23 01:11:25;;;;;;;21.67;11.77;;;;;;;3.00;64.14;96212.28;5015222;28;20409;-71
2021/03/23 01:13:50;;;;;;;21.58;12.00;;;;;;;2.96;64.84;96208.97;5016754;28;20054;-72
2021/03/23 01:16:16;;;;;;;28.17;13.07;;;;;;;3.00;65.15;96209.66;5017241;28;20022;-72
2021/03/23 01:18:41;;;;;;;23.55;11.65;;;;;;;2.99;65.04;96210.59;5017829;28;20030;-71
2021/03/23 01:21:07;;;;;;;24.25;11.82;;;;;;;2.95;64.40;96211.66;5017719;28;20116;-72
2021/03/23 01:23:33;;;;;;;24.25;12.30;;;;;;;2.97;64.44;96212.41;5017454;28;20057;-71
2021/03/23 01:25:59;;;;;;;23.65;11.57;;;;;;;2.93;65.40;96214.34;5017594;28;20029;-71
2021/03/23 01:28:25;;;;;;;23.15;12.13;;;;;;;2.94;65.11;96215.19;5013816;28;20041;-72
2021/03/23 01:30:50;;;;;;;26.83;11.77;;;;;;;2.92;65.18;96212.69;5010278;28;20090;-71
2021/03/23 01:33:16;;;;;;;19.98;11.38;;;;;;;2.88;65.36;96208.56;5031995;28;20026;-71
2021/03/23 01:35:41;;;;;;;19.58;11.38;;;;;;;2.81;64.87;96210.66;5016464;28;20390;-71
2021/03/23 01:38:07;;;;;;;20.98;11.43;;;;;;;2.80;65.15;96210.72;5016342;28;20030;-71
2021/03/23 01:40:34;;;;;;;21.52;11.25;;;;;;;2.82;65.20;96209.72;5016698;28;20034;-72
2021/03/23 01:43:03;;;;;;;24.38;11.38;;;;;;;2.79;64.77;96204.69;5017152;28;20029;-71
2021/03/23 01:45:34;;;;;;;21.70;11.55;;;;;;;2.71;65.25;96204.22;5017293;28;20026;-72
2021/03/23 01:48:03;;;;;;;23.77;11.35;;;;;;;2.66;65.55;96207.09;5016680;28;20034;-71
2021/03/23 01:50:29;;;;;;;21.55;11.57;;;;;;;2.74;65.38;96198.88;5017421;28;20115;-72
2021/03/23 01:53:09;;;;;;;22.00;12.13;;;;;;;2.68;66.14;96200.06;5016383;28;20030;-71
2021/03/23 01:55:37;;;;;;;19.38;11.10;;;;;;;2.66;65.79;96190.66;5017078;28;20030;-72
2021/03/23 01:58:03;;;;;;;16.27;10.93;;;;;;;2.66;66.45;96198.44;5016649;28;20037;-71
2021/03/23 02:00:29;;;;;;;20.35;10.52;;;;;;;2.67;65.58;96198.38;5014514;28;20069;-71
2021/03/23 02:02:54;;;;;;;23.38;11.95;;;;;;;2.64;65.23;96195.09;5015391;28;20030;-71
2021/03/23 02:05:27;;;;;;;21.85;11.80;;;;;;;2.63;65.82;96188.22;5015001;28;20026;-72
2021/03/23 02:07:55;;;;;;;22.23;11.57;;;;;;;2.58;66.60;96185.84;5016621;28;20026;-72
2021/03/23 02:10:21;;;;;;;19.95;10.77;;;;;;;2.60;66.32;96188.38;5016473;28;20033;-72
2021/03/23 02:12:47;;;;;;;25.40;11.35;;;;;;;2.60;67.51;96183.19;5016618;28;20025;-71
2021/03/23 02:15:15;;;;;;;18.95;11.07;;;;;;;2.60;67.33;96188.38;5016050;28;20890;-71
2021/03/23 02:17:41;;;;;;;21.27;11.02;;;;;;;2.57;65.70;96178.97;5016613;28;20398;-71
2021/03/23 02:20:16;;;;;;;20.73;11.07;;;;;;;2.53;66.63;96186.06;5016566;28;20072;-71
2021/03/23 02:22:47;;;;;;;18.90;10.38;;;;;;;2.50;65.59;96180.22;5013004;28;20030;-72
2021/03/23 02:25:15;;;;;;;25.65;11.60;;;;;;;2.49;65.69;96176.75;5001570;28;20585;-71
2021/03/23 02:27:41;;;;;;;20.58;10.45;;;;;;;2.50;66.16;96178.44;5015111;28;20069;-72
2021/03/23 02:30:14;;;;;;;22.83;12.55;;;;;;;2.48;66.52;96171.66;5015533;28;20551;-71
2021/03/23 02:32:40;;;;;;;20.55;11.73;;;;;;;2.50;66.97;96178.44;5013342;28;20029;-71
2021/03/23 02:35:06;;;;;;;31.10;12.07;;;;;;;2.49;66.97;96179.38;5006379;28;20022;-72
2021/03/23 02:37:32;;;;;;;20.70;10.90;;;;;;;2.50;66.50;96180.22;5012412;28;20026;-71
2021/03/23 02:39:57;;;;;;;20.40;10.80;;;;;;;2.50;66.65;96175.84;5004309;28;20040;-71
2021/03/23 02:42:23;;;;;;;28.15;10.80;;;;;;;2.46;65.68;96179.53;5003451;28;20147;-71
2021/03/23 02:44:49;;;;;;;23.17;11.23;;;;;;;2.48;65.91;96175.09;5015426;28;20051;-71
2021/03/23 02:47:18;;;;;;;19.17;10.13;;;;;;;2.52;65.94;96174.00;5015603;28;20262;-71
2021/03/23 02:49:44;;;;;;;21.25;11.80;;;;;;;2.52;65.71;96176.59;5012600;28;20116;-71
2021/03/23 02:52:12;;;;;;;19.63;10.90;;;;;;;2.48;65.95;96172.47;5003287;28;20053;-71
2021/03/23 02:54:38;;;;;;;23.27;11.63;;;;;;;2.46;66.17;96176.94;5028221;28;20085;-71
2021/03/23 02:57:04;;;;;;;20.80;11.05;;;;;;;2.38;66.11;96169.53;5008733;28;20034;-71
2021/03/23 02:59:29;;;;;;;17.42;10.88;;;;;;;2.38;65.98;96168.69;5014447;28;20053;-71
2021/03/23 03:01:55;;;;;;;21.58;11.48;;;;;;;2.37;66.51;96170.44;5011171;28;20037;-71
2021/03/23 03:04:21;;;;;;;25.95;11.80;;;;;;;2.37;66.41;96172.22;5015800;28;20033;-72
2021/03/23 03:06:46;;;;;;;25.75;10.77;;;;;;;2.33;66.71;96168.94;5013427;28;20030;-71
2021/03/23 03:09:12;;;;;;;16.65;11.10;;;;;;;2.37;66.79;96167.03;5010546;28;20030;-71
2021/03/23 03:11:38;;;;;;;22.23;11.32;;;;;;;2.34;67.25;96172.38;5015288;28;20036;-72
2021/03/23 03:14:04;;;;;;;23.88;12.20;;;;;;;2.40;66.47;96172.06;5026909;28;20041;-71
2021/03/23 03:16:29;;;;;;;24.80;11.27;;;;;;;2.32;66.09;96169.84;5014873;28;20036;-71
2021/03/23 03:18:55;;;;;;;25.88;12.75;;;;;;;2.29;66.95;96170.00;5015853;28;20040;-71
2021/03/23 03:21:21;;;;;;;22.98;11.35;;;;;;;2.34;67.13;96174.97;5015018;28;20109;-71
2021/03/23 03:23:48;;;;;;;21.45;11.35;;;;;;;2.36;66.77;96170.53;5004485;28;20025;-71
2021/03/23 03:26:13;;;;;;;27.35;11.55;;;;;;;2.39;66.64;96172.97;5014075;28;20033;-71
2021/03/23 03:28:39;;;;;;;25.77;11.77;;;;;;;2.37;66.03;96177.41;5023915;28;20033;-71
2021/03/23 03:31:05;;;;;;;29.63;12.10;;;;;;;2.40;66.70;96190.25;5009594;28;20029;-71
2021/03/23 03:33:31;;;;;;;23.27;11.80;;;;;;;2.38;67.31;96194.69;5009756;28;20030;-71
2021/03/23 03:35:58;;;;;;;24.70;11.85;;;;;;;2.38;66.20;96199.88;5010806;28;20490;-71
2021/03/23 03:38:25;;;;;;;25.10;12.13;;;;;;;2.42;66.63;96202.22;5010759;28;20506;-71
2021/03/23 03:40:57;;;;;;;17.23;10.40;;;;;;;2.46;66.85;96196.91;5009562;28;20029;-72
2021/03/23 03:43:27;;;;;;;23.35;11.50;;;;;;;2.39;66.71;96201.56;5006745;28;20073;-71
2021/03/23 03:45:54;;;;;;;20.02;11.13;;;;;;;2.35;67.72;96206.06;5006900;28;20034;-71
2021/03/23 03:48:19;;;;;;;19.70;11.10;;;;;;;2.40;66.74;96205.84;5009263;28;20133;-71
2021/03/23 03:50:45;;;;;;;18.02;11.27;;;;;;;2.43;67.20;96206.53;5009071;28;20061;-72
2021/03/23 03:53:12;;;;;;;20.40;11.43;;;;;;;2.42;67.19;96212.63;5024387;28;20057;-71
2021/03/23 03:55:41;;;;;;;23.67;11.68;;;;;;;2.41;67.91;96210.13;5009627;28;20069;-71
2021/03/23 03:58:07;;;;;;;27.45;11.32;;;;;;;2.40;68.12;96203.25;5004564;28;20050;-72
2021/03/23 04:00:33;;;;;;;24.02;11.07;;;;;;;2.39;68.73;96207.59;5021656;28;20113;-71
2021/03/23 04:03:01;;;;;;;22.80;11.27;;;;;;;2.43;68.45;96213.47;5013146;28;20367;-71
2021/03/23 04:05:31;;;;;;;16.42;12.02;;;;;;;2.34;68.25;96213.97;5028449;28;20863;-71
2021/03/23 04:07:57;;;;;;;17.25;10.48;;;;;;;2.33;68.13;96215.72;5013227;28;20026;-71
2021/03/23 04:10:23;;;;;;;33.03;12.77;;;;;;;2.33;68.05;96212.28;5012856;28;20222;-71
2021/03/23 04:12:50;;;;;;;19.95;10.85;;;;;;;2.35;67.78;96220.84;5012567;28;20040;-71
2021/03/23 04:15:28;;;;;;;22.80;12.98;;;;;;;2.29;68.71;96222.81;5028252;28;20038;-71
2021/03/23 04:17:54;;;;;;;19.40;11.63;;;;;;;2.30;67.89;96215.88;5012935;28;20500;-71
2021/03/23 04:20:20;;;;;;;21.80;11.15;;;;;;;2.29;67.59;96215.00;5013429;28;20093;-71
2021/03/23 04:22:45;;;;;;;15.05;10.85;;;;;;;2.26;67.71;96222.16;5013098;28;20029;-71
2021/03/23 04:25:13;;;;;;;19.60;11.95;;;;;;;2.28;67.61;96210.72;5008148;28;20018;-72
2021/03/23 04:27:39;;;;;;;19.92;12.30;;;;;;;2.31;67.78;96222.75;5013606;28;20553;-71
2021/03/23 04:30:06;;;;;;;25.50;11.52;;;;;;;2.30;67.91;96218.47;5004090;28;20109;-72
2021/03/23 04:32:33;;;;;;;18.98;11.93;;;;;;;2.23;68.43;96212.72;5010366;28;20032;-72
2021/03/23 04:34:58;;;;;;;19.98;11.43;;;;;;;2.26;68.08;96212.56;5010144;28;20026;-71
2021/03/23 04:37:24;;;;;;;20.98;12.38;;;;;;;2.28;67.37;96225.50;5018325;28;20556;-71
2021/03/23 04:39:50;;;;;;;24.80;12.45;;;;;;;2.21;67.57;96222.38;5011115;28;20052;-71
2021/03/23 04:42:16;;;;;;;25.75;12.82;;;;;;;2.22;67.54;96228.41;5008869;28;20078;-71
2021/03/23 04:44:41;;;;;;;25.10;12.38;;;;;;;2.25;67.65;96229.09;5009386;28;20025;-72
2021/03/23 04:47:07;;;;;;;23.98;12.55;;;;;;;2.31;67.15;96224.50;5013174;28;20067;-70
2021/03/23 04:49:33;;;;;;;22.08;12.52;;;;;;;2.28;68.28;96230.69;5012715;28;20037;-70
2021/03/23 04:51:58;;;;;;;22.30;13.18;;;;;;;2.27;67.86;96224.66;5012777;28;20065;-72
2021/03/23 04:54:24;;;;;;;25.00;11.98;;;;;;;2.31;67.83;96219.28;5013336;28;20022;-72
2021/03/23 04:56:50;;;;;;;22.27;12.10;;;;;;;2.32;67.75;96224.41;5015484;28;20022;-71
2021/03/23 04:59:16;;;;;;;19.98;11.88;;;;;;;2.34;66.90;96229.56;5013024;28;20025;-67
2021/03/23 05:01:41;;;;;;;19.10;12.07;;;;;;;2.29;67.52;96230.59;5013639;28;20032;-67
2021/03/23 05:04:12;;;;;;;23.33;12.05;;;;;;;2.27;67.50;96237.63;5014241;28;20037;-68
2021/03/23 05:06:38;;;;;;;17.73;10.80;;;;;;;2.25;67.83;96229.09;5030387;28;20037;-70
2021/03/23 05:09:03;;;;;;;19.02;11.13;;;;;;;2.29;68.26;96227.19;5015318;28;20029;-68
2021/03/23 05:11:31;;;;;;;18.65;11.50;;;;;;;2.23;68.68;96227.50;5016832;28;20030;-70
2021/03/23 05:13:57;;;;;;;28.73;12.73;;;;;;;2.26;69.64;96225.56;5016380;28;20034;-72
2021/03/23 05:16:23;;;;;;;21.92;11.18;;;;;;;2.26;69.31;96232.53;5016938;28;20029;-72
2021/03/23 05:18:50;;;;;;;22.65;11.80;;;;;;;2.25;69.62;96231.69;5015782;28;20034;-71
2021/03/23 05:21:17;;;;;;;19.30;10.98;;;;;;;2.24;69.49;96235.19;5016773;28;20064;-70
2021/03/23 05:23:42;;;;;;;25.83;13.18;;;;;;;2.23;69.36;96235.28;5015572;28;20683;-70
2021/03/23 05:26:08;;;;;;;20.75;14.38;;;;;;;2.25;68.72;96236.06;5016767;28;20037;-71
2021/03/23 05:28:34;;;;;;;25.85;14.13;;;;;;;2.16;69.19;96245.16;5013591;28;20026;-71
2021/03/23 05:31:01;;;;;;;22.27;15.00;;;;;;;2.09;70.38;96243.75;5026393;28;20554;-71
2021/03/23 05:33:27;;;;;;;20.80;12.25;;;;;;;2.11;69.54;96244.53;5016780;28;20514;-71
2021/03/23 05:35:57;;;;;;;20.63;11.70;;;;;;;2.19;70.12;96254.53;5013722;28;20022;-71
2021/03/23 05:38:23;;;;;;;20.10;11.27;;;;;;;2.17;69.59;96253.75;5016944;28;20021;-71
2021/03/23 05:40:55;;;;;;;22.08;12.07;;;;;;;2.24;69.90;96261.19;5016129;28;20068;-71
2021/03/23 05:43:27;;;;;;;21.05;12.27;;;;;;;2.24;69.79;96262.97;5011967;28;20033;-71
2021/03/23 05:46:09;;;;;;;23.85;12.00;;;;;;;2.18;70.25;96268.44;5007551;28;20195;-71
2021/03/23 05:48:36;;;;;;;20.00;11.48;;;;;;;2.20;70.13;96272.66;5014316;28;20026;-71
2021/03/23 05:51:17;;;;;;;21.92;12.63;;;;;;;2.18;69.80;96277.09;5015109;28;20486;-71
2021/03/23 05:53:51;;;;;;;21.67;11.68;;;;;;;2.09;69.93;96272.31;5016276;28;20026;-71
2021/03/23 05:56:19;;;;;;;21.35;11.60;;;;;;;2.14;69.09;96281.56;5015703;28;20022;-71
2021/03/23 05:58:52;;;;;;;22.15;11.32;;;;;;;2.17;70.30;96288.41;5015615;28;20628;-71
2021/03/23 06:01:27;;;;;;;17.48;11.20;;;;;;;2.25;70.31;96288.84;5031180;28;20030;-71
2021/03/23 06:04:02;;;;;;;19.88;12.13;;;;;;;2.32;70.33;96294.59;5014368;28;20113;-71
2021/03/23 06:06:40;;;;;;;24.13;12.60;;;;;;;2.36;69.68;96296.09;5015451;28;20105;-71
2021/03/23 06:09:11;;;;;;;22.63;11.85;;;;;;;2.33;68.88;96300.63;5031012;28;20048;-71
2021/03/23 06:11:40;;;;;;;19.85;11.68;;;;;;;2.38;69.14;96299.47;5016256;28;20037;-71
2021/03/23 06:14:24;;;;;;;24.13;12.23;;;;;;;2.46;69.62;96300.88;5015505;28;20136;-71
2021/03/23 06:17:04;;;;;;;22.60;13.02;;;;;;;2.46;70.64;96304.28;5015638;28;20386;-71
2021/03/23 06:19:44;;;;;;;19.60;12.40;;;;;;;2.47;69.80;96298.16;5015449;28;20026;-71
2021/03/23 06:22:21;;;;;;;19.70;12.10;;;;;;;2.47;70.23;96305.97;5013864;28;20026;-71
2021/03/23 06:24:58;;;;;;;19.08;11.23;;;;;;;2.53;70.36;96315.22;5014931;28;20029;-71
2021/03/23 06:27:30;;;;;;;22.65;11.90;;;;;;;2.33;68.03;96311.84;5030356;28;20545;-71
2021/03/23 06:30:07;;;;;;;16.88;11.15;;;;;;;2.45;69.45;96323.41;5015374;28;20089;-71
2021/03/23 06:32:45;;;;;;;19.45;11.63;;;;;;;2.49;69.40;96321.50;5001138;28;20053;-71
2021/03/23 06:35:15;;;;;;;24.35;13.68;;;;;;;2.49;68.64;96327.53;5015873;28;20069;-71
2021/03/23 06:37:41;;;;;;;23.52;11.93;;;;;;;2.40;69.25;96334.00;5030600;28;20061;-71
2021/03/23 06:40:33;;;;;;;26.63;15.95;;;;;;;2.49;69.68;96339.69;5015467;28;20040;-71
2021/03/23 06:43:27;;;;;;;33.08;19.60;;;;;;;2.47;69.34;96336.34;5012038;28;20030;-71
2021/03/23 06:46:03;;;;;;;35.97;18.50;;;;;;;2.53;68.63;96336.84;5009582;28;20029;-71
2021/03/23 06:48:31;;;;;;;27.27;15.85;;;;;;;2.54;69.64;96338.56;5014072;28;20512;-72
2021/03/23 06:51:13;;;;;;;29.92;13.18;;;;;;;2.56;68.86;96343.66;5014049;28;20022;-71
2021/03/23 06:53:40;;;;;;;20.02;11.63;;;;;;;2.56;68.46;96344.50;5012876;28;20022;-71
2021/03/23 06:56:22;;;;;;;21.67;12.55;;;;;;;2.66;67.86;96349.25;5014540;28;20091;-71
2021/03/23 06:59:17;;;;;;;20.35;11.60;;;;;;;2.68;68.28;96345.66;5032243;28;20093;-72
2021/03/23 07:01:48;;;;;;;24.38;11.90;;;;;;;2.82;69.35;96350.16;5015239;28;20083;-71
2021/03/23 07:04:17;;;;;;;19.30;12.10;;;;;;;2.90;67.66;96348.91;5014794;28;20045;-69
2021/03/23 07:06:43;;;;;;;24.02;12.40;;;;;;;3.01;67.51;96346.63;5015437;28;20041;-72
2021/03/23 07:09:20;;;;;;;21.13;12.20;;;;;;;3.08;67.10;96342.78;5014121;28;20034;-74
2021/03/23 07:12:03;;;;;;;26.42;13.70;;;;;;;3.11;66.24;96345.22;5013007;28;20060;-70
2021/03/23 07:14:34;;;;;;;27.33;13.85;;;;;;;3.13;67.59;96350.34;5012103;28;20050;-72
2021/03/23 07:17:18;;;;;;;29.90;13.25;;;;;;;3.28;66.29;96348.69;4940948;28;20524;-71
2021/03/23 07:19:47;;;;;;;18.85;12.68;;;;;;;3.40;66.19;96350.63;5013032;28;20123;-69
2021/03/23 07:22:18;;;;;;;22.70;11.75;;;;;;;3.54;65.96;96354.28;5014751;28;20030;-70
2021/03/23 07:24:58;;;;;;;22.42;12.38;;;;;;;3.43;65.52;96358.31;5010484;28;20046;-70
2021/03/23 07:27:26;;;;;;;17.92;12.48;;;;;;;3.59;65.64;96365.28;5029318;28;20057;-70
2021/03/23 07:30:13;;;;;;;19.77;12.02;;;;;;;3.68;64.60;96363.94;5012925;28;20040;-70
2021/03/23 07:32:48;;;;;;;23.42;12.38;;;;;;;3.82;65.66;96360.59;5001208;28;20031;-69
2021/03/23 07:35:22;;;;;;;21.95;13.45;;;;;;;4.15;63.93;96364.88;5014042;28;20688;-71
2021/03/23 07:38:03;;;;;;;24.05;12.88;;;;;;;4.11;61.73;96365.97;4983018;28;20094;-70
2021/03/23 07:40:46;;;;;;;25.58;13.40;;;;;;;4.21;62.55;96359.31;5015653;28;20021;-70
2021/03/23 07:43:27;;;;;;;18.05;13.10;;;;;;;4.32;60.45;96356.09;5025915;28;20037;-70
2021/03/23 07:46:26;;;;;;;21.17;12.02;;;;;;;4.27;61.83;96365.97;5018302;28;20034;-70
2021/03/23 07:49:29;;;;;;;21.77;12.85;;;;;;;4.65;62.09;96362.94;5006103;28;20038;-70
2021/03/23 07:52:00;;;;;;;24.65;12.63;;;;;;;4.95;60.01;96356.84;5010865;28;20049;-70
2021/03/23 07:54:39;;;;;;;22.73;13.18;;;;;;;4.69;59.99;96351.41;5017376;28;20529;-73
2021/03/23 07:57:23;;;;;;;21.73;13.20;;;;;;;4.84;60.53;96352.25;5016056;28;20029;-70
2021/03/23 08:00:29;;;;;;;19.65;14.15;;;;;;;4.94;59.04;96354.31;5031526;28;20030;-69
2021/03/23 08:03:13;;;;;;;22.30;12.90;;;;;;;5.00;58.65;96361.81;5020641;28;20038;-69
2021/03/23 08:05:55;;;;;;;27.25;16.23;;;;;;;5.22;60.90;96363.13;5015065;28;20029;-69
2021/03/23 08:09:09;;;;;;;27.33;13.90;;;;;;;4.82;60.69;96364.56;5016896;28;20037;-67
2021/03/23 08:11:52;;;;;;;19.73;12.05;;;;;;;5.20;59.45;96367.59;5014662;28;20549;-69
2021/03/23 08:14:38;;;;;;;20.33;13.60;;;;;;;5.35;59.98;96365.84;5014880;28;20046;-69
2021/03/23 08:17:18;;;;;;;21.10;13.17;;;;;;;5.36;60.11;96375.34;5012751;28;20041;-69
2021/03/23 08:19:47;;;;;;;29.27;16.02;;;;;;;5.12;61.60;96379.31;5018093;28;20756;-69
2021/03/23 08:22:33;;;;;;;21.88;12.50;;;;;;;4.94;59.34;96375.19;5017821;28;20038;-69
2021/03/23 08:25:21;;;;;;;22.75;12.65;;;;;;;4.98;59.25;96372.31;5017783;28;20026;-69
2021/03/23 08:28:12;;;;;;;30.80;14.05;;;;;;;5.13;58.04;96378.41;5017841;28;20030;-69
2021/03/23 08:31:11;;;;;;;20.20;12.27;;;;;;;4.84;60.84;96383.56;5011750;28;20598;-69
2021/03/23 08:33:59;;;;;;;20.05;11.40;;;;;;;4.81;59.03;96382.91;5015035;28;20021;-67
2021/03/23 08:36:56;;;;;;;27.00;13.65;;;;;;;5.06;59.31;96391.91;5015263;28;20038;-67
2021/03/23 08:39:28;;;;;;;19.88;12.13;;;;;;;5.09;57.28;96392.56;5017836;28;20030;-69
2021/03/23 08:42:06;;;;;;;24.10;12.35;;;;;;;5.23;58.25;96390.91;5017179;28;20113;-69
2021/03/23 08:44:38;;;;;;;26.05;11.95;;;;;;;5.36;57.80;96391.84;5016128;28;20026;-69
2021/03/23 08:47:23;;;;;;;19.50;12.45;;;;;;;5.44;57.17;96391.38;5018065;28;20045;-69
2021/03/23 08:49:49;;;;;;;25.15;13.23;;;;;;;5.38;56.00;96400.41;5018328;28;20033;-69
2021/03/23 08:52:33;;;;;;;26.65;12.88;;;;;;;5.37;57.90;96405.75;5018102;28;20104;-69
2021/03/23 08:55:03;;;;;;;21.67;12.60;;;;;;;5.43;56.44;96407.97;5018142;28;20034;-67
2021/03/23 08:57:47;;;;;;;23.83;13.10;;;;;;;5.78;56.70;96401.53;5016547;28;20398;-67
2021/03/23 09:00:38;;;;;;;21.30;11.95;;;;;;;5.59;55.34;96410.50;5010934;28;20032;-69
2021/03/23 09:03:06;;;;;;;21.35;12.20;;;;;;;5.40;55.25;96410.78;5017290;28;20041;-67
2021/03/23 09:05:54;;;;;;;21.50;13.70;;;;;;;5.93;54.68;96411.06;5017221;28;20034;-67
2021/03/23 09:08:43;;;;;;;20.00;13.98;;;;;;;6.08;53.05;96417.13;5015842;28;20040;-66
2021/03/23 09:11:39;;;;;;;27.88;14.95;;;;;;;5.65;55.13;96420.59;5008830;28;20027;-67
2021/03/23 09:14:08;;;;;;;22.15;13.85;;;;;;;6.15;53.59;96414.97;5018756;28;20076;-69
2021/03/23 09:17:12;;;;;;;27.38;15.27;;;;;;;6.30;52.20;96424.47;5016239;28;20041;-69
2021/03/23 09:19:52;;;;;;;27.33;15.30;;;;;;;8.43;46.54;96418.06;5016231;28;20036;-69
2021/03/23 09:22:17;;;;;;;26.85;14.27;;;;;;;11.46;40.12;96407.00;5014985;28;20053;-67
2021/03/23 09:24:44;;;;;;;30.23;14.05;;;;;;;10.24;41.62;96413.31;5016959;28;20065;-68
2021/03/23 09:27:15;;;;;;;21.75;13.13;;;;;;;11.37;40.58;96402.50;5007967;28;20054;-68
2021/03/23 09:29:46;;;;;;;21.23;12.80;;;;;;;13.05;34.56;96399.38;5013505;28;20038;-68
2021/03/23 09:32:16;;;;;;;23.80;12.82;;;;;;;15.52;30.84;96404.25;5015485;28;20032;-68
2021/03/23 09:35:38;;;;;;;16.90;11.68;;;;;;;18.23;24.94;96400.59;5017499;28;20026;-68
2021/03/23 09:38:20;;;;;;;22.88;12.05;;;;;;;16.86;27.07;96405.50;5019719;28;20041;-69
2021/03/23 09:40:59;;;;;;;17.90;11.68;;;;;;;18.72;22.95;96402.19;5029247;28;20033;-67
2021/03/23 09:43:29;;;;;;;21.17;12.10;;;;;;;20.31;21.64;96401.47;5011727;28;20490;-68
2021/03/23 09:45:59;;;;;;;19.40;11.90;;;;;;;19.89;21.32;96400.22;5016683;28;20133;-68
2021/03/23 09:48:42;;;;;;;14.98;10.95;;;;;;;20.52;20.59;96391.84;5017183;28;20057;-68
2021/03/23 09:51:34;;;;;;;19.52;11.57;;;;;;;20.88;20.52;96396.34;5014851;28;20474;-68
2021/03/23 09:54:00;;;;;;;16.15;11.20;;;;;;;20.35;19.48;96391.22;5016475;28;20030;-68
2021/03/23 09:56:36;;;;;;;17.98;11.20;;;;;;;22.09;18.58;96395.72;5016282;28;20095;-69
2021/03/23 09:59:06;;;;;;;19.38;11.20;;;;;;;21.23;18.78;96394.84;5015592;28;20030;-68
2021/03/23 10:01:34;;;;;;;18.02;11.55;;;;;;;21.55;18.35;96379.22;5016698;28;20030;-69
2021/03/23 10:04:02;;;;;;;12.90;10.40;;;;;;;21.98;18.48;96381.00;4981777;28;20125;-64
2021/03/23 10:06:43;;;;;;;17.50;10.82;;;;;;;21.33;18.83;96379.25;5015291;28;20026;-63
2021/03/23 10:09:10;;;;;;;19.95;11.52;;;;;;;21.60;18.13;96388.34;5016168;28;20022;-63
2021/03/23 10:11:44;;;;;;;17.02;11.25;;;;;;;20.16;20.29;96384.59;5013399;28;20029;-63
2021/03/23 10:14:20;;;;;;;16.50;11.00;;;;;;;22.46;17.56;96381.06;5005967;28;20050;-64
2021/03/23 10:16:46;;;;;;;16.73;10.80;;;;;;;21.97;17.86;96380.16;5015263;28;20038;-65
2021/03/23 10:19:24;;;;;;;23.67;11.35;;;;;;;22.81;16.94;96372.06;5011786;28;20624;-65
2021/03/23 10:21:52;;;;;;;15.82;10.68;;;;;;;22.94;16.71;96381.19;5013252;28;20053;-66
2021/03/23 10:24:25;;;;;;;13.82;10.02;;;;;;;22.49;16.89;96381.69;5015966;28;20527;-65
2021/03/23 10:26:54;;;;;;;19.38;10.80;;;;;;;21.38;18.13;96379.53;5002502;28;20049;-65
2021/03/23 10:29:26;;;;;;;16.80;11.02;;;;;;;23.52;16.40;96379.81;5032050;28;20408;-65
2021/03/23 10:31:57;;;;;;;22.08;11.40;;;;;;;22.22;17.35;96384.22;5028497;28;20036;-67
2021/03/23 10:34:28;;;;;;;19.88;10.45;;;;;;;23.73;15.93;96384.16;5035109;28;20098;-66
2021/03/23 10:37:05;;;;;;;17.05;10.30;;;;;;;23.70;16.01;96389.94;5035903;28;20052;-67
2021/03/23 10:39:42;;;;;;;15.07;11.43;;;;;;;24.92;14.23;96383.16;5034115;28;20074;-66
2021/03/23 10:42:28;;;;;;;18.27;10.60;;;;;;;24.09;15.39;96385.53;5047033;28;20464;-66
2021/03/23 10:45:34;;;;;;;16.10;10.00;;;;;;;22.74;17.10;96384.66;5035262;28;20034;-66
2021/03/23 10:48:03;;;;;;;25.10;12.98;;;;;;;24.18;15.30;96378.91;5035233;28;20033;-66
2021/03/23 10:50:30;;;;;;;19.25;10.65;;;;;;;24.37;15.92;96379.06;5050296;28;20041;-66
2021/03/23 10:53:10;;;;;;;15.27;10.13;;;;;;;24.61;15.50;96372.09;5035160;28;20417;-66
2021/03/23 10:55:40;;;;;;;15.55;9.68;;;;;;;21.82;17.60;96374.94;5030378;28;20473;-66
2021/03/23 10:58:14;;;;;;;12.98;9.95;;;;;;;23.20;16.19;96376.88;5035068;28;20029;-67
2021/03/23 11:00:40;;;;;;;19.67;10.93;;;;;;;24.63;15.26;96371.06;5032061;28;20029;-66
2021/03/23 11:03:34;;;;;;;18.17;10.32;;;;;;;22.78;16.28;96377.84;5033853;28;20032;-66
2021/03/23 11:06:01;;;;;;;19.00;10.35;;;;;;;21.95;17.57;96373.38;5029680;28;20034;-67
2021/03/23 11:08:28;;;;;;;14.65;10.00;;;;;;;23.78;16.11;96380.84;5034004;28;20083;-67
2021/03/23 11:10:56;;;;;;;21.42;10.23;;;;;;;25.04;14.57;96377.91;5032545;28;20111;-67
2021/03/23 11:13:22;;;;;;;13.43;9.73;;;;;;;22.28;17.81;96381.56;5034043;28;20033;-68
2021/03/23 11:17:04;;;;;;;;;;;;;;;;;;;;;
2021/03/23 11:20:00;;;;;;;13.93;8.82;;;;;;;20.09;21.90;96373.00;5022546;28;20076;-67
2021/03/23 11:25:50;;;;;;;13.38;8.50;;;;;;;21.39;18.30;96364.28;4975489;28;20100;-66
2021/03/23 11:52:08;;;;;;;;;;;;;;;13.87;32.36;96353.97;5107979;27;20380;-52
2021/03/23 11:54:34;;;;;;;20.70;11.50;;;;;;;13.95;33.10;96354.06;5079145;28;19927;-51
2021/03/23 11:56:59;;;;;;;16.83;10.27;;;;;;;14.13;31.10;96350.63;5083586;28;20392;-51
2021/03/23 11:59:25;;;;;;;21.27;10.77;;;;;;;13.72;33.94;96364.22;5092902;28;20028;-51
2021/03/23 12:01:51;;;;;;;15.68;10.90;;;;;;;13.82;33.29;96362.34;5073622;28;20074;-52
2021/03/23 12:04:17;;;;;;;19.23;11.27;;;;;;;13.53;33.74;96359.81;5047092;27;20044;-50
2021/03/23 12:07:17;;;;;;;16.50;10.27;;;;;;;14.14;34.54;96357.59;5074027;28;20045;-50
2021/03/23 12:09:55;;;;;;;18.45;10.75;;;;;;;14.39;33.82;96355.22;5081540;28;20032;-50
2021/03/23 12:12:27;;;;;;;17.63;10.77;;;;;;;14.81;32.44;96352.00;5079880;28;20028;-51
2021/03/23 12:15:03;;;;;;;19.02;11.23;;;;;;;14.95;31.73;96350.63;5084974;28;20050;-55